Time;durP1;ratioP1;P1;durP2;ratioP2;P2;SDS_P1;SDS_P2;PMS_P1;PMS_P2;Temp;Humidity;BMP_temperature;BMP_pressure;BME280_temperature;BME280_humidity;BME280_pressure;Samples;Min_cycle;Max_cycle;Signal;HPM_P1;HPM_P2
2023/05/10 00:00:09;;;;;;;3.15;1.40;;;14.20;99.90;;;;;;5006586;28;20062;-74
2023/05/10 00:02:35;;;;;;;4.32;1.35;;;14.20;99.90;;;;;;4985684;28;20516;-75
2023/05/10 00:05:01;;;;;;;2.33;1.10;;;14.20;99.90;;;;;;4991002;28;20038;-74
2023/05/10 00:07:27;;;;;;;1.88;1.40;;;14.10;99.90;;;;;;4985937;28;20086;-74
2023/05/10 00:09:52;;;;;;;1.98;0.95;;;14.10;99.90;;;;;;4991275;28;20030;-74
2023/05/10 00:12:18;;;;;;;0.98;0.60;;;14.00;99.90;;;;;;4985669;28;20041;-74
2023/05/10 00:14:44;;;;;;;0.80;0.55;;;14.00;99.90;;;;;;5005925;28;20114;-74
2023/05/10 00:17:10;;;;;;;1.98;1.13;;;13.90;99.90;;;;;;4985964;28;20494;-74
2023/05/10 00:19:36;;;;;;;2.10;0.90;;;13.90;99.90;;;;;;4990935;28;20034;-74
2023/05/10 00:22:02;;;;;;;1.00;0.60;;;13.90;99.90;;;;;;4985711;28;20034;-74
2023/05/10 00:24:27;;;;;;;1.10;0.80;;;13.90;99.90;;;;;;4990893;28;20031;-74
2023/05/10 00:26:53;;;;;;;2.05;0.80;;;13.80;99.90;;;;;;4985917;28;20246;-74
2023/05/10 00:29:19;;;;;;;0.85;0.68;;;13.90;99.90;;;;;;4991120;28;20383;-75
2023/05/10 00:31:45;;;;;;;1.77;0.90;;;13.80;99.90;;;;;;5000567;28;20113;-75
2023/05/10 00:34:10;;;;;;;2.75;0.82;;;13.80;99.90;;;;;;4990766;28;20173;-75
2023/05/10 00:36:36;;;;;;;1.25;0.80;;;13.80;99.90;;;;;;4986789;28;20034;-75
2023/05/10 00:39:03;;;;;;;1.20;0.98;;;13.70;99.90;;;;;;4989616;28;20040;-74
2023/05/10 00:41:32;;;;;;;1.05;0.57;;;13.70;99.90;;;;;;4989280;28;20053;-74
2023/05/10 00:43:58;;;;;;;3.25;1.08;;;13.80;99.90;;;;;;4988385;28;20406;-74
2023/05/10 00:46:25;;;;;;;1.77;0.80;;;13.80;99.90;;;;;;4990161;28;20034;-74
2023/05/10 00:48:52;;;;;;;1.55;0.80;;;13.80;99.90;;;;;;4969763;28;20031;-74
2023/05/10 00:51:18;;;;;;;0.85;0.80;;;13.70;99.90;;;;;;4991009;28;20107;-75
2023/05/10 00:53:45;;;;;;;1.63;1.13;;;13.60;99.90;;;;;;4984152;28;20100;-75
2023/05/10 00:56:12;;;;;;;3.65;1.27;;;13.60;99.90;;;;;;4989734;28;20556;-74
2023/05/10 00:58:42;;;;;;;1.05;0.60;;;13.70;99.90;;;;;;4987922;28;20362;-74
2023/05/10 01:01:09;;;;;;;1.60;0.75;;;13.70;99.90;;;;;;4954658;29;20042;-75
2023/05/10 01:03:36;;;;;;;2.95;0.98;;;13.60;99.90;;;;;;4984203;28;20042;-75
2023/05/10 01:06:03;;;;;;;3.33;1.25;;;13.60;99.90;;;;;;4965494;28;20077;-75
2023/05/10 01:12:50;;;;;;;2.58;1.15;;;13.60;99.90;;;;;;4969594;28;20718;-75
2023/05/10 01:15:17;;;;;;;1.40;0.70;;;13.50;99.90;;;;;;4971733;28;20090;-75
2023/05/10 01:17:46;;;;;;;2.47;0.95;;;13.50;99.90;;;;;;4980398;28;20038;-75
2023/05/10 01:20:12;;;;;;;2.47;1.30;;;13.60;99.90;;;;;;4994166;28;20044;-74
2023/05/10 01:23:30;;;;;;;2.05;1.30;;;13.50;99.90;;;;;;4987462;28;20038;-74
2023/05/10 01:26:39;;;;;;;2.10;0.98;;;13.60;99.90;;;;;;4991192;28;20401;-73
2023/05/10 01:29:46;;;;;;;1.45;0.73;;;13.70;99.90;;;;;;4992232;28;20217;-73
2023/05/10 01:32:34;;;;;;;1.20;0.75;;;13.60;99.90;;;;;;4988544;28;20410;-73
2023/05/10 01:35:12;;;;;;;1.60;0.75;;;13.60;99.90;;;;;;4991982;28;20092;-74
2023/05/10 01:37:50;;;;;;;1.23;0.75;;;13.60;99.90;;;;;;4988548;28;20034;-74
2023/05/10 01:40:27;;;;;;;0.75;0.50;;;13.70;99.90;;;;;;4976584;28;20038;-74
2023/05/10 01:43:01;;;;;;;1.73;0.93;;;13.70;99.90;;;;;;4979911;28;20417;-74
2023/05/10 01:45:53;;;;;;;3.92;1.30;;;13.70;99.90;;;;;;4992387;28;20034;-74
2023/05/10 01:48:20;;;;;;;1.42;0.80;;;13.70;99.90;;;;;;4987355;28;20030;-74
2023/05/10 01:50:48;;;;;;;0.65;0.57;;;13.60;99.90;;;;;;4992458;28;20026;-74
2023/05/10 01:53:19;;;;;;;1.67;0.70;;;13.60;99.90;;;;;;4985920;28;20034;-74
2023/05/10 01:55:52;;;;;;;1.63;0.98;;;13.70;99.90;;;;;;4992363;28;20030;-73
2023/05/10 01:58:31;;;;;;;0.70;0.38;;;13.70;99.90;;;;;;4986615;28;20093;-73
2023/05/10 02:01:01;;;;;;;1.05;0.57;;;13.60;99.90;;;;;;4992353;28;20022;-73
2023/05/10 02:03:28;;;;;;;1.17;0.80;;;13.60;99.90;;;;;;4987232;28;20578;-73
2023/05/10 02:05:55;;;;;;;2.22;0.70;;;13.60;99.90;;;;;;4991896;28;20157;-74
2023/05/10 02:08:23;;;;;;;2.03;0.88;;;13.60;99.90;;;;;;4987061;28;20568;-73
2023/05/10 02:10:52;;;;;;;1.73;0.90;;;13.60;99.90;;;;;;4993256;28;20030;-73
2023/05/10 02:13:19;;;;;;;0.70;0.57;;;13.50;99.90;;;;;;4986407;28;20033;-73
2023/05/10 02:15:48;;;;;;;1.55;0.80;;;13.50;99.90;;;;;;4962334;28;20782;-73
2023/05/10 02:18:15;;;;;;;0.55;0.45;;;13.50;99.90;;;;;;4983388;28;20030;-73
2023/05/10 02:20:45;;;;;;;0.93;0.70;;;13.50;99.90;;;;;;4991505;28;20026;-73
2023/05/10 02:23:12;;;;;;;3.03;0.63;;;13.50;99.90;;;;;;4985610;28;20117;-73
2023/05/10 02:25:38;;;;;;;1.45;0.82;;;13.50;99.90;;;;;;4992905;28;20450;-73
2023/05/10 02:28:07;;;;;;;0.77;0.63;;;13.50;99.90;;;;;;4986211;28;20022;-73
2023/05/10 02:30:34;;;;;;;1.27;0.93;;;13.50;99.90;;;;;;4991586;28;20044;-74
2023/05/10 02:33:02;;;;;;;2.03;0.63;;;13.40;99.90;;;;;;4985541;28;20038;-73
2023/05/10 02:35:29;;;;;;;0.80;0.52;;;13.50;99.90;;;;;;4991122;28;20101;-74
2023/05/10 02:37:57;;;;;;;0.93;0.50;;;13.40;99.90;;;;;;4987224;28;20029;-74
2023/05/10 02:40:25;;;;;;;0.82;0.55;;;13.40;99.90;;;;;;4991595;28;20096;-74
2023/05/10 02:42:54;;;;;;;4.53;1.13;;;13.30;99.90;;;;;;4986250;28;20041;-74
2023/05/10 02:45:26;;;;;;;1.40;0.60;;;13.30;99.90;;;;;;4990914;28;20026;-74
2023/05/10 02:47:52;;;;;;;1.02;0.70;;;13.30;99.90;;;;;;4985861;28;20038;-74
2023/05/10 02:50:19;;;;;;;1.80;0.82;;;13.30;99.90;;;;;;4991447;28;20081;-74
2023/05/10 02:52:53;;;;;;;4.05;1.15;;;13.20;99.90;;;;;;4985441;28;20039;-74
2023/05/10 02:55:25;;;;;;;1.50;0.88;;;13.20;99.90;;;;;;4990964;28;20401;-74
2023/05/10 02:58:00;;;;;;;5.07;1.05;;;13.20;99.90;;;;;;4985280;28;20026;-74
2023/05/10 03:00:27;;;;;;;1.15;0.85;;;13.20;99.90;;;;;;4991283;28;20034;-74
2023/05/10 03:02:53;;;;;;;2.38;0.70;;;13.20;99.90;;;;;;4986702;28;20529;-74
2023/05/10 03:05:20;;;;;;;2.00;0.90;;;13.20;99.90;;;;;;4990995;28;20034;-75
2023/05/10 03:07:47;;;;;;;1.33;0.65;;;13.20;99.90;;;;;;4986251;28;20034;-75
2023/05/10 03:10:13;;;;;;;2.15;0.85;;;13.30;99.90;;;;;;4992056;28;20042;-75
2023/05/10 03:13:07;;;;;;;1.67;1.00;;;13.30;99.90;;;;;;4984908;28;20042;-75
2023/05/10 03:15:54;;;;;;;1.83;1.13;;;13.20;99.90;;;;;;4970013;28;20114;-75
2023/05/10 03:18:33;;;;;;;1.48;0.93;;;13.20;99.90;;;;;;4983034;28;20034;-75
2023/05/10 03:21:07;;;;;;;1.13;0.70;;;13.20;99.90;;;;;;4990674;28;20030;-75
2023/05/10 03:23:45;;;;;;;2.22;1.10;;;13.20;99.90;;;;;;4984580;28;20034;-75
2023/05/10 03:26:20;;;;;;;2.78;0.70;;;13.20;99.90;;;;;;4952061;29;20082;-75
2023/05/10 03:28:48;;;;;;;4.93;1.15;;;13.20;99.90;;;;;;5001453;28;20087;-75
2023/05/10 03:31:14;;;;;;;9.38;1.30;;;13.30;99.90;;;;;;4990555;28;20064;-75
2023/05/10 03:33:51;;;;;;;2.90;1.00;;;13.30;99.90;;;;;;4984658;28;20037;-75
2023/05/10 03:36:18;;;;;;;1.83;1.20;;;13.30;99.90;;;;;;4951822;29;20031;-75
2023/05/10 03:38:44;;;;;;;3.20;1.38;;;13.20;99.90;;;;;;4985426;28;20081;-75
2023/05/10 03:41:09;;;;;;;3.00;1.45;;;13.20;99.90;;;;;;4991731;28;20033;-75
2023/05/10 03:43:36;;;;;;;2.88;1.40;;;13.10;99.90;;;;;;4985743;28;20034;-75
2023/05/10 03:46:03;;;;;;;3.60;1.63;;;13.10;99.90;;;;;;4991484;28;20026;-75
2023/05/10 03:48:30;;;;;;;2.03;1.30;;;13.20;99.90;;;;;;4984876;28;20026;-75
2023/05/10 03:50:55;;;;;;;2.33;1.38;;;13.10;99.90;;;;;;4989907;28;20026;-75
2023/05/10 03:53:22;;;;;;;2.40;1.33;;;13.10;99.90;;;;;;4985672;28;20085;-75
2023/05/10 03:55:48;;;;;;;2.92;1.30;;;13.10;99.90;;;;;;4991389;28;20037;-76
2023/05/10 03:58:15;;;;;;;2.33;1.33;;;13.00;99.90;;;;;;4985265;28;20030;-75
2023/05/10 04:00:45;;;;;;;1.90;1.30;;;13.00;99.90;;;;;;4984012;28;20022;-75
2023/05/10 04:03:11;;;;;;;4.60;1.92;;;13.00;99.90;;;;;;4985452;28;20030;-75
2023/05/10 04:05:37;;;;;;;2.22;1.10;;;13.00;99.90;;;;;;4990085;28;20160;-75
2023/05/10 04:08:04;;;;;;;7.07;1.63;;;13.10;99.90;;;;;;4985591;28;20492;-75
2023/05/10 04:10:30;;;;;;;2.05;1.27;;;13.10;99.90;;;;;;4990131;28;20030;-75
2023/05/10 04:12:56;;;;;;;3.08;1.50;;;13.00;99.90;;;;;;4985453;28;20038;-75
2023/05/10 04:15:22;;;;;;;1.50;0.95;;;13.10;99.90;;;;;;4980738;28;20039;-75
2023/05/10 04:17:48;;;;;;;2.20;1.27;;;13.10;99.90;;;;;;4976830;28;20552;-75
2023/05/10 04:20:14;;;;;;;4.25;1.77;;;13.10;99.90;;;;;;4990909;28;20479;-75
2023/05/10 04:22:40;;;;;;;4.38;1.38;;;13.10;99.90;;;;;;4985725;28;20034;-76
2023/05/10 04:25:07;;;;;;;3.20;1.63;;;13.10;99.90;;;;;;4990519;28;20379;-75
2023/05/10 04:27:33;;;;;;;5.75;1.13;;;13.10;99.90;;;;;;4984408;28;20042;-75
2023/05/10 04:29:58;;;;;;;1.95;1.10;;;13.10;99.90;;;;;;4989693;28;20033;-75
2023/05/10 04:32:24;;;;;;;2.38;1.35;;;13.10;99.90;;;;;;4987617;28;20022;-75
2023/05/10 04:34:53;;;;;;;1.88;1.40;;;13.10;99.90;;;;;;4984159;28;20031;-74
2023/05/10 04:37:21;;;;;;;5.20;2.58;;;13.10;99.90;;;;;;4970026;28;20077;-73
2023/05/10 04:39:46;;;;;;;5.18;2.33;;;13.10;99.90;;;;;;4971936;28;20041;-73
2023/05/10 04:42:14;;;;;;;4.28;2.08;;;13.20;99.90;;;;;;4969522;28;20030;-73
2023/05/10 04:44:40;;;;;;;1.05;0.80;;;13.10;99.90;;;;;;4971447;28;20031;-73
2023/05/10 04:47:06;;;;;;;2.30;1.13;;;13.10;99.90;;;;;;4969596;28;20508;-74
2023/05/10 04:49:32;;;;;;;1.45;1.00;;;13.10;99.90;;;;;;4971704;28;20039;-74
2023/05/10 04:51:57;;;;;;;7.00;1.33;;;13.00;99.90;;;;;;4966086;28;20043;-73
2023/05/10 04:54:23;;;;;;;2.67;0.93;;;13.00;99.90;;;;;;4976187;28;20037;-74
2023/05/10 04:56:49;;;;;;;2.15;1.40;;;12.90;99.90;;;;;;4986383;28;20063;-73
2023/05/10 04:59:15;;;;;;;1.50;0.98;;;12.90;99.90;;;;;;4988087;28;20058;-73
2023/05/10 05:01:41;;;;;;;3.03;1.58;;;12.80;99.90;;;;;;4970182;28;20096;-73
2023/05/10 05:04:06;;;;;;;4.38;2.30;;;12.80;99.90;;;;;;4993798;28;20026;-73
2023/05/10 05:06:32;;;;;;;3.47;2.15;;;12.90;99.90;;;;;;4991950;28;20042;-72
2023/05/10 05:08:58;;;;;;;2.38;1.25;;;12.90;99.90;;;;;;4991790;28;20069;-74
2023/05/10 05:11:25;;;;;;;3.13;1.70;;;12.90;99.90;;;;;;4993390;28;20057;-73
2023/05/10 05:13:51;;;;;;;4.22;2.28;;;12.90;99.90;;;;;;4991465;28;20053;-74
2023/05/10 05:16:17;;;;;;;3.78;1.77;;;13.00;99.90;;;;;;4976701;28;20034;-74
2023/05/10 05:18:42;;;;;;;4.03;1.38;;;13.00;99.90;;;;;;4987954;28;20069;-74
2023/05/10 05:21:19;;;;;;;2.75;1.70;;;13.00;99.90;;;;;;4985680;28;20399;-73
2023/05/10 05:23:45;;;;;;;2.95;1.65;;;13.00;99.90;;;;;;4985792;28;20064;-73
2023/05/10 05:26:11;;;;;;;8.90;2.10;;;13.10;99.90;;;;;;4992202;28;20037;-73
2023/05/10 05:28:38;;;;;;;2.90;1.70;;;13.10;99.90;;;;;;4988110;28;20046;-75
2023/05/10 05:31:05;;;;;;;2.30;1.58;;;13.20;99.90;;;;;;4993355;28;20789;-74
2023/05/10 05:33:31;;;;;;;1.98;1.30;;;13.20;99.90;;;;;;4987794;28;20030;-74
2023/05/10 05:35:59;;;;;;;3.20;1.67;;;13.30;99.90;;;;;;4993422;28;20037;-74
2023/05/10 05:38:25;;;;;;;3.28;2.05;;;13.30;99.90;;;;;;4987630;28;20497;-73
2023/05/10 05:40:51;;;;;;;3.80;2.10;;;13.30;99.90;;;;;;4992155;28;20165;-74
2023/05/10 05:43:17;;;;;;;2.58;1.45;;;13.40;99.90;;;;;;4986266;28;20113;-73
2023/05/10 05:45:43;;;;;;;3.08;1.45;;;13.40;99.90;;;;;;4993339;28;20034;-74
2023/05/10 05:48:08;;;;;;;2.88;1.52;;;13.40;99.90;;;;;;4986621;28;20738;-75
2023/05/10 05:50:34;;;;;;;4.55;2.53;;;13.40;99.90;;;;;;4993109;28;20034;-75
2023/05/10 05:53:00;;;;;;;2.00;1.30;;;13.40;99.90;;;;;;4983525;28;20058;-76
2023/05/10 05:55:35;;;;;;;5.35;1.50;;;13.40;99.90;;;;;;4992798;28;20044;-77
2023/05/10 05:58:16;;;;;;;2.33;1.50;;;13.50;99.90;;;;;;4971696;28;20082;-76
2023/05/10 06:00:45;;;;;;;3.80;1.48;;;13.50;99.90;;;;;;4993005;28;20081;-76
2023/05/10 06:03:18;;;;;;;3.92;1.88;;;13.60;99.90;;;;;;4964215;28;20035;-81
2023/05/10 06:05:44;;;;;;;3.30;2.13;;;13.60;99.90;;;;;;4973439;28;20035;-77
2023/05/10 06:08:36;;;;;;;16.17;4.07;;;13.60;99.90;;;;;;4970211;28;20092;-77
2023/05/10 06:11:10;;;;;;;24.63;5.18;;;13.70;99.90;;;;;;4991905;28;20034;-77
2023/05/10 06:13:39;;;;;;;3.10;2.05;;;13.70;99.90;;;;;;4966938;28;20042;-75
2023/05/10 06:16:38;;;;;;;3.53;1.90;;;13.80;99.90;;;;;;4963173;28;20038;-76
2023/05/10 06:19:14;;;;;;;3.20;2.10;;;13.80;99.90;;;;;;4916179;28;20819;-74
2023/05/10 06:21:42;;;;;;;2.42;1.70;;;13.70;99.90;;;;;;4966158;28;20070;-74
2023/05/10 06:24:30;;;;;;;4.43;2.35;;;13.90;99.90;;;;;;4972008;28;20026;-73
2023/05/10 06:27:00;;;;;;;2.85;1.90;;;14.00;99.90;;;;;;4971050;28;20062;-74
2023/05/10 06:29:30;;;;;;;8.20;2.37;;;14.00;99.90;;;;;;4979139;28;20031;-74
2023/05/10 06:31:57;;;;;;;3.30;1.80;;;14.10;99.90;;;;;;4966017;28;20524;-73
2023/05/10 06:34:47;;;;;;;4.07;2.17;;;14.20;99.90;;;;;;4979119;28;20022;-73
2023/05/10 06:37:14;;;;;;;3.95;1.67;;;14.20;99.90;;;;;;4964776;28;20043;-73
2023/05/10 06:40:17;;;;;;;7.05;2.13;;;14.30;99.90;;;;;;4985932;28;20034;-72
2023/05/10 06:43:02;;;;;;;5.97;2.17;;;14.40;99.90;;;;;;4951831;28;20042;-72
2023/05/10 06:53:03;;;;;;;4.43;2.38;;;14.30;99.90;;;;;;4976761;28;20038;-66
2023/05/10 06:55:29;;;;;;;4.65;2.42;;;14.50;99.90;;;;;;4971081;28;20050;-66
2023/05/10 06:57:55;;;;;;;4.75;2.03;;;14.40;99.90;;;;;;4980146;28;20111;-66
2023/05/10 07:00:21;;;;;;;4.90;2.33;;;14.30;99.90;;;;;;4973592;28;20039;-67
2023/05/10 07:02:47;;;;;;;2.45;1.85;;;14.50;99.90;;;;;;4979069;28;20030;-67
2023/05/10 07:05:13;;;;;;;3.15;2.03;;;14.60;99.90;;;;;;4975544;28;20174;-67
2023/05/10 07:07:39;;;;;;;6.07;2.88;;;14.70;99.90;;;;;;4972366;28;20601;-67
2023/05/10 07:10:07;;;;;;;5.50;1.52;;;14.80;99.90;;;;;;4975606;28;20030;-67
2023/05/10 07:12:33;;;;;;;3.47;1.33;;;14.90;99.90;;;;;;4977327;28;20030;-67
2023/05/10 07:14:59;;;;;;;6.18;1.35;;;14.90;99.90;;;;;;4980597;28;20031;-68
2023/05/10 07:17:25;;;;;;;4.15;1.95;;;14.90;99.90;;;;;;4975739;28;20046;-67
2023/05/10 07:19:51;;;;;;;4.50;1.25;;;14.90;99.90;;;;;;4981367;28;20540;-67
2023/05/10 07:22:17;;;;;;;3.00;1.48;;;15.00;99.90;;;;;;4976030;28;20042;-67
2023/05/10 07:24:44;;;;;;;1.52;1.10;;;15.00;99.90;;;;;;4977543;28;20501;-67
2023/05/10 07:27:10;;;;;;;1.33;0.80;;;15.00;99.90;;;;;;4970764;28;20086;-67
2023/05/10 07:29:37;;;;;;;5.45;1.10;;;15.10;99.90;;;;;;4975023;28;20069;-67
2023/05/10 07:32:02;;;;;;;3.03;1.50;;;15.20;99.90;;;;;;4975111;28;20101;-68
2023/05/10 07:34:29;;;;;;;1.42;0.95;;;15.20;99.90;;;;;;4983495;28;20478;-67
2023/05/10 07:36:58;;;;;;;1.23;0.82;;;15.50;99.90;;;;;;4974799;28;20027;-67
2023/05/10 07:39:24;;;;;;;2.03;1.15;;;15.60;99.90;;;;;;4982956;28;20505;-67
2023/05/10 07:41:50;;;;;;;2.70;1.38;;;15.40;99.90;;;;;;4988578;28;20031;-67
2023/05/10 07:44:18;;;;;;;1.73;1.02;;;15.60;99.90;;;;;;4995084;28;20105;-68
2023/05/10 07:46:44;;;;;;;1.13;0.93;;;15.70;99.90;;;;;;4974594;28;20035;-68
2023/05/10 07:49:10;;;;;;;3.28;1.05;;;15.90;99.90;;;;;;4977750;28;20027;-67
2023/05/10 07:51:35;;;;;;;4.22;0.80;;;15.90;99.90;;;;;;4972941;28;20568;-68
2023/05/10 07:54:02;;;;;;;4.35;1.10;;;15.80;99.90;;;;;;4995312;28;20088;-68
2023/05/10 07:56:31;;;;;;;1.35;0.90;;;15.70;99.90;;;;;;4976427;28;20540;-67
2023/05/10 07:58:58;;;;;;;1.63;0.90;;;15.80;99.90;;;;;;4983637;28;20120;-67
2023/05/10 08:01:24;;;;;;;1.02;0.90;;;15.90;99.90;;;;;;4969363;28;20050;-67
2023/05/10 08:03:51;;;;;;;2.65;1.05;;;15.80;99.90;;;;;;4997699;28;20018;-67
2023/05/10 08:06:20;;;;;;;1.52;0.70;;;15.70;99.90;;;;;;4967414;28;20027;-67
2023/05/10 08:08:50;;;;;;;2.28;0.73;;;15.90;99.90;;;;;;4981004;28;20117;-67
2023/05/10 08:11:17;;;;;;;1.70;0.95;;;15.70;99.90;;;;;;4965965;28;20038;-68
2023/05/10 08:13:44;;;;;;;0.82;0.60;;;15.80;99.90;;;;;;4983240;28;20044;-68
2023/05/10 08:16:09;;;;;;;0.75;0.60;;;15.80;99.90;;;;;;4984422;28;20041;-67
2023/05/10 08:18:35;;;;;;;1.10;0.80;;;15.70;99.90;;;;;;4984168;28;20109;-67
2023/05/10 08:21:01;;;;;;;1.92;0.95;;;15.70;99.90;;;;;;4972098;28;20461;-68
2023/05/10 08:23:26;;;;;;;0.80;0.57;;;15.90;99.90;;;;;;4991703;28;20027;-68
2023/05/10 08:25:52;;;;;;;0.90;0.63;;;15.60;99.90;;;;;;4973449;28;20402;-68
2023/05/10 08:28:18;;;;;;;1.40;0.75;;;15.80;99.90;;;;;;4982200;28;20050;-68
2023/05/10 08:30:43;;;;;;;0.93;0.55;;;16.00;99.90;;;;;;4974369;28;20034;-67
2023/05/10 08:33:09;;;;;;;1.23;0.80;;;15.90;99.90;;;;;;4980730;28;20034;-67
2023/05/10 08:35:35;;;;;;;2.67;0.73;;;16.10;99.90;;;;;;4972737;28;20041;-67
2023/05/10 08:38:01;;;;;;;0.98;0.38;;;16.30;99.90;;;;;;4994736;28;20393;-67
2023/05/10 08:40:27;;;;;;;1.23;0.90;;;16.40;99.90;;;;;;4975975;28;20030;-67
2023/05/10 08:43:05;;;;;;;1.63;0.90;;;16.50;99.90;;;;;;4978400;28;20100;-67
2023/05/10 08:45:37;;;;;;;1.13;0.60;;;16.60;99.90;;;;;;4967741;28;20046;-67
2023/05/10 08:48:06;;;;;;;2.97;0.88;;;16.80;99.90;;;;;;4978562;28;20046;-67
2023/05/10 08:50:37;;;;;;;0.50;0.30;;;16.90;99.90;;;;;;4973241;28;20039;-68
2023/05/10 08:53:11;;;;;;;0.80;0.52;;;16.80;99.90;;;;;;4978762;28;20049;-69
2023/05/10 08:55:38;;;;;;;1.48;0.60;;;16.40;99.90;;;;;;4975154;28;20034;-69
2023/05/10 08:58:08;;;;;;;1.05;0.50;;;16.30;99.90;;;;;;4977661;28;20026;-67
2023/05/10 09:00:35;;;;;;;0.50;0.40;;;16.10;99.90;;;;;;4970659;28;20053;-69
2023/05/10 09:03:03;;;;;;;0.68;0.40;;;16.00;99.90;;;;;;4977670;28;20099;-68
2023/05/10 09:05:29;;;;;;;2.55;0.90;;;16.00;99.90;;;;;;4968388;28;20492;-69
2023/05/10 09:07:55;;;;;;;0.77;0.35;;;15.90;99.90;;;;;;4988782;28;20050;-69
2023/05/10 09:10:22;;;;;;;0.85;0.50;;;15.80;99.90;;;;;;4972706;28;20027;-68
2023/05/10 09:12:49;;;;;;;1.35;0.60;;;15.80;99.90;;;;;;4989016;28;20084;-68
2023/05/10 09:15:19;;;;;;;0.32;0.28;;;15.80;99.90;;;;;;4973760;28;20023;-68
2023/05/10 09:17:46;;;;;;;2.10;0.43;;;15.80;99.90;;;;;;4976811;28;20558;-68
2023/05/10 09:20:13;;;;;;;0.77;0.30;;;15.80;99.90;;;;;;4972866;28;20092;-68
2023/05/10 09:22:39;;;;;;;7.50;0.88;;;15.90;99.90;;;;;;4980592;28;20033;-68
2023/05/10 09:25:13;;;;;;;1.75;0.73;;;15.90;99.90;;;;;;4981601;28;20026;-68
2023/05/10 09:27:44;;;;;;;1.65;0.85;;;15.80;99.90;;;;;;4977988;28;20512;-67
2023/05/10 09:30:15;;;;;;;1.40;0.70;;;15.70;99.90;;;;;;4975306;28;20034;-67
2023/05/10 09:32:45;;;;;;;0.60;0.50;;;15.90;99.90;;;;;;4978747;28;20068;-67
2023/05/10 09:35:16;;;;;;;0.85;0.70;;;15.90;99.90;;;;;;4975528;28;20089;-67
2023/05/10 09:37:45;;;;;;;1.58;0.60;;;16.00;99.90;;;;;;4980479;28;20490;-67
2023/05/10 09:40:23;;;;;;;0.77;0.47;;;16.20;99.90;;;;;;4975421;28;20461;-67
2023/05/10 09:43:00;;;;;;;0.98;0.60;;;16.40;99.90;;;;;;4970702;28;20061;-68
2023/05/10 09:45:29;;;;;;;0.95;0.52;;;16.30;99.90;;;;;;4969207;28;20086;-68
2023/05/10 09:47:56;;;;;;;0.70;0.43;;;16.60;99.90;;;;;;4991884;28;20030;-68
2023/05/10 09:50:23;;;;;;;0.68;0.40;;;16.80;99.90;;;;;;4976070;28;20109;-68
2023/05/10 09:53:00;;;;;;;1.30;0.80;;;16.60;99.90;;;;;;4980940;28;20050;-68
2023/05/10 09:55:44;;;;;;;0.45;0.40;;;16.60;99.90;;;;;;4974074;28;20046;-68
2023/05/10 09:58:10;;;;;;;1.70;0.73;;;16.30;99.90;;;;;;4992235;28;20026;-67
2023/05/10 10:00:42;;;;;;;1.40;0.70;;;15.90;99.90;;;;;;4972620;28;20033;-68
2023/05/10 10:03:16;;;;;;;7.63;0.40;;;15.40;99.90;;;;;;4991804;28;20731;-68
2023/05/10 10:05:44;;;;;;;1.05;0.80;;;14.60;99.90;;;;;;4962339;28;20030;-68
2023/05/10 10:08:13;;;;;;;0.65;0.50;;;14.10;99.90;;;;;;4983421;28;20073;-68
2023/05/10 10:10:44;;;;;;;0.77;0.50;;;14.00;99.90;;;;;;4971358;28;20043;-66
2023/05/10 10:13:10;;;;;;;1.23;0.75;;;14.00;99.90;;;;;;4985899;28;20457;-68
2023/05/10 10:15:36;;;;;;;0.80;0.57;;;14.00;99.90;;;;;;4969044;28;20066;-68
2023/05/10 10:18:03;;;;;;;1.17;0.80;;;14.00;99.90;;;;;;4976075;28;20054;-67
2023/05/10 10:20:29;;;;;;;2.55;0.95;;;14.20;99.90;;;;;;4972981;28;20069;-68
2023/05/10 10:22:55;;;;;;;1.60;1.02;;;14.40;99.90;;;;;;4981000;28;20030;-69
2023/05/10 10:25:22;;;;;;;1.52;0.93;;;14.70;99.90;;;;;;4974536;28;20482;-69
2023/05/10 10:27:54;;;;;;;2.95;1.15;;;14.90;99.90;;;;;;4980206;28;20041;-69
2023/05/10 10:30:49;;;;;;;1.35;0.90;;;15.00;99.90;;;;;;4974809;28;20030;-67
2023/05/10 10:33:31;;;;;;;1.42;0.88;;;15.10;99.90;;;;;;4979827;28;20088;-67
2023/05/10 10:36:00;;;;;;;0.85;0.70;;;15.20;99.90;;;;;;4974001;28;20058;-68
2023/05/10 10:38:59;;;;;;;1.02;0.60;;;15.30;99.90;;;;;;4983565;28;20035;-69
2023/05/10 10:41:37;;;;;;;1.05;0.52;;;15.50;99.90;;;;;;4974804;28;20101;-68
2023/05/10 10:44:29;;;;;;;2.25;0.55;;;15.80;99.90;;;;;;4987260;28;20098;-69
2023/05/10 10:47:11;;;;;;;0.85;0.70;;;15.90;99.90;;;;;;4975452;28;20462;-69
2023/05/10 10:49:40;;;;;;;2.90;0.65;;;16.10;99.90;;;;;;4967741;28;20625;-69
2023/05/10 10:52:29;;;;;;;10.57;0.77;;;16.40;99.90;;;;;;4973292;28;20035;-69
2023/05/10 10:55:06;;;;;;;0.80;0.55;;;16.60;99.90;;;;;;4986582;28;20031;-69
2023/05/10 10:57:43;;;;;;;0.82;0.60;;;16.70;99.90;;;;;;4975456;28;20371;-69
2023/05/10 11:00:28;;;;;;;1.13;0.80;;;16.90;99.90;;;;;;4972850;28;20030;-69
2023/05/10 11:02:59;;;;;;;1.95;0.55;;;17.10;99.90;;;;;;4978675;28;20609;-69
2023/05/10 11:05:38;;;;;;;1.02;0.65;;;17.30;99.90;;;;;;4978209;28;20117;-70
2023/05/10 11:08:31;;;;;;;4.03;0.60;;;17.50;99.90;;;;;;4981465;28;20552;-69
2023/05/10 11:11:00;;;;;;;1.48;0.63;;;17.60;99.90;;;;;;4960551;28;20391;-71
2023/05/10 11:13:32;;;;;;;4.28;0.82;;;17.70;99.90;;;;;;4984097;28;20045;-70
2023/05/10 11:16:09;;;;;;;1.65;0.55;;;17.80;99.90;;;;;;4969447;28;20042;-69
2023/05/10 11:18:37;;;;;;;3.60;0.47;;;18.10;99.90;;;;;;4984732;28;20085;-68
2023/05/10 11:21:05;;;;;;;0.60;0.57;;;18.30;99.90;;;;;;4972722;28;20030;-68
2023/05/10 11:23:47;;;;;;;0.85;0.30;;;18.00;99.90;;;;;;4990408;28;20084;-67
2023/05/10 11:26:13;;;;;;;0.22;0.20;;;18.20;99.90;;;;;;4971549;28;20081;-67
2023/05/10 11:28:47;;;;;;;1.75;0.57;;;18.10;99.90;;;;;;4982686;28;20084;-66
2023/05/10 11:31:18;;;;;;;2.03;0.40;;;18.30;99.90;;;;;;4985677;28;20050;-66
2023/05/10 11:33:46;;;;;;;0.40;0.30;;;18.50;99.90;;;;;;4983669;28;20034;-68
2023/05/10 11:36:20;;;;;;;1.58;0.30;;;18.60;99.90;;;;;;4973097;28;20039;-69
2023/05/10 11:38:46;;;;;;;1.52;0.40;;;18.60;99.90;;;;;;4981752;28;20057;-68
2023/05/10 11:41:13;;;;;;;1.00;0.30;;;18.40;99.90;;;;;;4972722;28;20034;-68
2023/05/10 11:43:40;;;;;;;1.25;0.55;;;18.20;99.90;;;;;;4984324;28;20057;-68
2023/05/10 11:46:11;;;;;;;2.40;0.57;;;18.20;99.90;;;;;;4985439;28;20121;-69
2023/05/10 11:48:40;;;;;;;0.77;0.45;;;18.20;99.90;;;;;;4978992;28;20034;-68
2023/05/10 11:51:07;;;;;;;2.17;0.50;;;18.00;99.90;;;;;;4968402;28;20157;-68
2023/05/10 11:53:33;;;;;;;3.25;0.55;;;18.10;99.90;;;;;;4984790;28;20064;-69
2023/05/10 11:56:12;;;;;;;1.90;0.38;;;18.10;99.90;;;;;;4967243;28;20045;-69
2023/05/10 11:58:39;;;;;;;0.65;0.30;;;18.20;99.90;;;;;;4981060;28;20030;-68
2023/05/10 12:01:08;;;;;;;6.13;0.90;;;18.00;99.90;;;;;;4967061;28;20050;-68
2023/05/10 12:03:35;;;;;;;0.30;0.20;;;18.20;99.90;;;;;;4982927;28;20026;-68
2023/05/10 12:06:02;;;;;;;0.40;0.40;;;18.00;99.90;;;;;;4972511;28;20579;-68
2023/05/10 12:08:29;;;;;;;1.88;0.40;;;18.40;99.90;;;;;;4989432;28;20038;-69
2023/05/10 12:11:12;;;;;;;3.45;0.60;;;18.30;99.90;;;;;;4967960;28;20041;-68
2023/05/10 12:13:46;;;;;;;8.88;1.00;;;18.20;99.90;;;;;;4980792;28;20114;-68
2023/05/10 12:16:23;;;;;;;0.52;0.32;;;18.20;99.90;;;;;;4964460;28;20494;-69
2023/05/10 12:18:51;;;;;;;1.05;0.43;;;18.30;99.90;;;;;;4975933;28;20572;-69
2023/05/10 12:21:18;;;;;;;0.70;0.60;;;18.00;99.90;;;;;;4968346;28;20023;-68
2023/05/10 12:23:46;;;;;;;0.28;0.28;;;18.00;99.90;;;;;;4966719;28;20413;-68
2023/05/10 12:26:13;;;;;;;1.00;0.32;;;18.10;99.90;;;;;;4967482;28;20114;-68
2023/05/10 12:28:42;;;;;;;0.75;0.38;;;18.20;99.90;;;;;;4975434;28;20034;-69
2023/05/10 12:31:08;;;;;;;0.88;0.40;;;18.30;99.90;;;;;;4965160;28;20371;-69
2023/05/10 12:33:45;;;;;;;2.25;0.55;;;18.50;99.90;;;;;;4981345;28;20034;-69
2023/05/10 12:36:13;;;;;;;0.88;0.43;;;18.40;99.90;;;;;;4963728;28;20043;-68
2023/05/10 12:38:42;;;;;;;0.38;0.32;;;18.60;99.90;;;;;;4981241;28;20039;-68
2023/05/10 12:41:13;;;;;;;0.73;0.30;;;18.30;99.90;;;;;;4968923;28;20026;-68
2023/05/10 12:43:39;;;;;;;0.22;0.20;;;18.40;99.90;;;;;;4978487;28;20035;-68
2023/05/10 12:46:10;;;;;;;0.20;0.20;;;18.40;99.90;;;;;;4972264;28;20041;-68
2023/05/10 12:48:39;;;;;;;4.35;0.50;;;18.80;99.80;;;;;;4973357;28;20131;-68
2023/05/10 12:51:09;;;;;;;0.90;0.50;;;19.20;99.90;;;;;;4986785;28;20027;-69
2023/05/10 12:53:35;;;;;;;2.00;0.98;;;19.20;99.90;;;;;;4986395;28;20030;-68
2023/05/10 12:56:01;;;;;;;0.30;0.30;;;19.50;99.90;;;;;;4974500;28;20035;-68
2023/05/10 12:58:27;;;;;;;1.60;0.38;;;19.20;99.90;;;;;;4992802;28;20049;-68
2023/05/10 13:00:53;;;;;;;1.30;0.57;;;19.30;99.90;;;;;;4968500;28;20035;-69
2023/05/10 13:03:19;;;;;;;1.92;0.30;;;19.60;99.90;;;;;;4981320;28;20023;-68
2023/05/10 13:05:45;;;;;;;0.28;0.28;;;19.70;99.90;;;;;;4971641;28;20405;-68
2023/05/10 13:08:11;;;;;;;5.00;0.50;;;18.80;99.90;;;;;;4996118;28;20038;-68
2023/05/10 13:10:36;;;;;;;1.58;0.75;;;19.00;99.90;;;;;;4976648;28;20121;-68